aviador You're here:

OEDF Decoded Metar

DAMMAM in SAUDI ARABIA
Report Time2017-08-21 13:00:00
UTC Time2017-08-21 13:51:52
Flight Rules vfr VFR
WindCalm
Visibility8000 m
Phenomena:N/A
Clouds:N/A
Expected CloudBase > 10,800 ft AGL from Temp-Dew spread
CeilingNone
Temp45°C (ISA +30)
Dew Point18°C (21% RH)
Heat Index47.8°C
QNH0996 hPa
Density Alt4,268 ft
Elevation72 ft
Report Wrong Elevation
Raw Report
METAR OEDF 211300Z 00000KT 8000 NSC 45/18 Q0996 NOSIG=

Extra information for OEDF:More info

Metar Taf Metar & Taf Last 4 Metars F.Rules Stats Wind Profile Meteogram Temp Stats Airport Information Weather charts Add Link Nearby VenuesMetar ALERT Operation Metar Decoded Social comments